createdAt,value
2018-12-08T00:00:13.953Z,9.83
2018-12-08T00:02:41.422Z,5.47
2018-12-08T00:05:08.905Z,9.83
2018-12-08T00:07:36.360Z,8.20
2018-12-08T00:10:04.391Z,8.17
2018-12-08T00:12:31.853Z,6.00
2018-12-08T00:14:59.332Z,9.23
2018-12-08T00:17:26.792Z,8.37
2018-12-08T00:19:54.256Z,9.20
2018-12-08T00:22:21.829Z,8.90
2018-12-08T00:24:49.304Z,4.40
2018-12-08T00:27:16.797Z,4.27
2018-12-08T00:29:44.255Z,7.73
2018-12-08T00:32:11.744Z,10.20
2018-12-08T00:34:39.206Z,6.30
2018-12-08T00:37:06.680Z,6.33
2018-12-08T00:39:34.153Z,5.63
2018-12-08T00:42:01.624Z,5.97
2018-12-08T00:44:29.093Z,4.87
2018-12-08T00:46:56.619Z,4.57
2018-12-08T00:49:24.155Z,9.80
2018-12-08T00:51:51.720Z,3.63
2018-12-08T00:54:19.185Z,3.90
2018-12-08T00:56:46.680Z,3.80
2018-12-08T00:59:14.140Z,5.53
2018-12-08T01:01:42.080Z,4.53
2018-12-08T01:04:09.555Z,3.40
2018-12-08T01:06:37.013Z,3.20
2018-12-08T01:09:05.573Z,9.53
2018-12-08T01:11:33.052Z,4.97
2018-12-08T01:14:00.539Z,4.80
2018-12-08T01:16:28.069Z,8.83
2018-12-08T01:18:55.565Z,2.97
2018-12-08T01:21:23.036Z,6.13
2018-12-08T01:23:50.520Z,7.50
2018-12-08T01:26:17.987Z,5.30
2018-12-08T01:28:45.475Z,5.23
2018-12-08T01:31:12.932Z,6.10
2018-12-08T01:33:40.418Z,5.73
2018-12-08T01:36:07.896Z,5.57
2018-12-08T01:38:35.371Z,5.40
2018-12-08T01:41:02.847Z,3.53
2018-12-08T01:43:30.335Z,5.10
2018-12-08T01:45:57.803Z,7.37
2018-12-08T01:48:25.275Z,6.77
2018-12-08T01:50:52.752Z,8.13
2018-12-08T01:53:20.216Z,5.43
2018-12-08T01:55:47.707Z,5.53
2018-12-08T01:58:15.194Z,6.70
2018-12-08T02:00:42.675Z,5.57
2018-12-08T02:03:10.145Z,6.00
2018-12-08T02:05:37.768Z,7.03
2018-12-08T02:08:05.234Z,5.10
2018-12-08T02:10:32.713Z,12.27
2018-12-08T02:13:00.180Z,9.07
2018-12-08T02:15:27.655Z,7.83
2018-12-08T02:17:55.131Z,5.50
2018-12-08T02:20:22.617Z,8.37
2018-12-08T02:22:50.090Z,6.27
2018-12-08T02:25:17.581Z,3.23
2018-12-08T02:27:45.154Z,8.23
2018-12-08T02:30:12.789Z,8.63
2018-12-08T02:32:40.281Z,4.30
2018-12-08T02:35:07.738Z,5.63
2018-12-08T02:37:35.214Z,6.00
2018-12-08T02:40:02.768Z,10.10
2018-12-08T02:42:30.250Z,4.67
2018-12-08T02:44:57.707Z,4.43
2018-12-08T02:47:25.179Z,5.10
2018-12-08T02:49:52.683Z,5.50
2018-12-08T02:52:20.243Z,3.77
2018-12-08T02:54:47.819Z,11.67
2018-12-08T02:57:15.320Z,6.93
2018-12-08T02:59:42.779Z,6.63
2018-12-08T03:02:10.277Z,5.80
2018-12-08T03:04:37.733Z,7.00
2018-12-08T03:07:05.203Z,8.33
2018-12-08T03:09:32.748Z,4.50
2018-12-08T03:12:00.248Z,9.40
2018-12-08T03:14:27.707Z,8.10
2018-12-08T03:16:55.181Z,7.20
2018-12-08T03:19:22.652Z,10.10
2018-12-08T03:21:50.127Z,10.70
2018-12-08T03:24:18.427Z,8.03
2018-12-08T03:26:45.914Z,5.43
2018-12-08T03:29:13.464Z,6.93
2018-12-08T03:31:41.358Z,8.20
2018-12-08T03:34:08.845Z,3.30
2018-12-08T03:36:36.334Z,5.20
2018-12-08T03:39:06.690Z,2.13
2018-12-08T03:41:34.262Z,5.07
2018-12-08T03:44:01.824Z,5.70
2018-12-08T03:46:29.301Z,5.03
2018-12-08T03:48:56.795Z,4.57
2018-12-08T03:51:24.256Z,3.60
2018-12-08T03:53:51.735Z,5.73
2018-12-08T03:56:19.196Z,4.43
2018-12-08T03:58:46.667Z,5.10
2018-12-08T04:01:14.189Z,7.47
2018-12-08T04:03:41.669Z,6.93
2018-12-08T04:06:09.297Z,7.83
2018-12-08T04:08:36.813Z,10.67
2018-12-08T04:11:04.575Z,6.10
2018-12-08T04:13:32.059Z,4.67
2018-12-08T04:15:59.538Z,7.37
2018-12-08T04:18:27.020Z,5.60
2018-12-08T04:20:54.567Z,6.27
2018-12-08T04:23:22.061Z,6.40
2018-12-08T04:25:49.541Z,6.97
2018-12-08T04:28:17.016Z,5.30
2018-12-08T04:30:44.497Z,4.37
2018-12-08T04:33:12.007Z,6.10
2018-12-08T04:35:39.487Z,11.13
2018-12-08T04:38:07.066Z,3.23
2018-12-08T04:40:34.558Z,2.60
2018-12-08T04:43:02.046Z,3.40
2018-12-08T04:45:29.536Z,6.70
2018-12-08T04:47:57.045Z,8.20
2018-12-08T04:50:24.555Z,8.57
2018-12-08T04:52:52.021Z,6.03
2018-12-08T04:55:19.528Z,6.13
2018-12-08T04:57:47.069Z,8.00
2018-12-08T05:00:14.596Z,8.57
2018-12-08T05:02:42.086Z,4.23
2018-12-08T05:05:10.533Z,8.00
2018-12-08T05:07:37.996Z,4.50
2018-12-08T05:10:06.869Z,5.33
2018-12-08T05:12:34.333Z,8.87
2018-12-08T05:15:01.921Z,8.07
2018-12-08T05:17:29.493Z,4.77
2018-12-08T05:19:56.964Z,9.03
2018-12-08T05:22:24.464Z,6.13
2018-12-08T05:24:51.951Z,9.63
2018-12-08T05:27:19.495Z,10.53
2018-12-08T05:29:47.015Z,6.63
2018-12-08T05:32:14.543Z,9.57
2018-12-08T05:34:42.045Z,5.80
2018-12-08T05:37:09.576Z,8.23
2018-12-08T05:39:37.090Z,5.80
2018-12-08T05:42:04.596Z,3.47
2018-12-08T05:44:32.086Z,5.67
2018-12-08T05:46:59.587Z,8.07
2018-12-08T05:49:27.059Z,3.70
2018-12-08T05:51:54.581Z,3.93
2018-12-08T05:54:22.068Z,8.90
2018-12-08T05:56:50.012Z,5.70
2018-12-08T05:59:17.475Z,7.57
2018-12-08T06:01:44.969Z,2.50
2018-12-08T06:04:12.453Z,6.53
2018-12-08T06:06:39.939Z,4.80
2018-12-08T06:09:07.507Z,5.87
2018-12-08T06:11:34.983Z,7.10
2018-12-08T06:14:02.471Z,2.03
2018-12-08T06:16:29.938Z,4.87
2018-12-08T06:18:57.419Z,6.30
2018-12-08T06:21:31.502Z,5.70
2018-12-08T06:23:58.988Z,6.50
2018-12-08T06:26:26.548Z,5.93
2018-12-08T06:28:54.031Z,6.47
2018-12-08T06:31:21.497Z,6.13
2018-12-08T06:33:49.001Z,8.17
2018-12-08T06:36:16.570Z,9.67
2018-12-08T06:38:44.408Z,6.07
2018-12-08T06:41:11.870Z,2.53
2018-12-08T06:43:39.356Z,5.03
2018-12-08T06:46:06.827Z,6.10
2018-12-08T06:48:34.327Z,7.40
2018-12-08T06:51:01.837Z,5.90
2018-12-08T06:53:29.312Z,3.57
2018-12-08T06:55:56.801Z,2.53
2018-12-08T06:58:24.292Z,6.00
2018-12-08T07:00:51.863Z,4.07
2018-12-08T07:03:19.438Z,2.93
2018-12-08T07:05:46.938Z,2.13
2018-12-08T07:08:14.692Z,5.17
2018-12-08T07:10:42.181Z,5.10
2018-12-08T07:13:09.903Z,4.20
2018-12-08T07:15:37.421Z,3.10
2018-12-08T07:18:04.971Z,5.17
2018-12-08T07:20:32.502Z,1.80
2018-12-08T07:22:59.991Z,7.80
2018-12-08T07:25:27.475Z,5.27
2018-12-08T07:27:54.943Z,2.70
2018-12-08T07:30:22.454Z,6.90
2018-12-08T07:32:49.929Z,6.27
2018-12-08T07:35:17.409Z,4.67
2018-12-08T07:37:44.959Z,6.93
2018-12-08T07:40:12.452Z,5.30
2018-12-08T07:42:40.864Z,8.47
2018-12-08T07:45:08.412Z,4.83
2018-12-08T07:47:35.888Z,10.70
2018-12-08T07:50:04.931Z,11.53
2018-12-08T07:52:32.412Z,4.73
2018-12-08T07:54:59.915Z,7.67
2018-12-08T07:57:27.384Z,6.10
2018-12-08T07:59:54.867Z,13.47
2018-12-08T08:02:22.340Z,23.77
2018-12-08T08:04:49.832Z,19.20
2018-12-08T08:07:17.323Z,12.43
2018-12-08T08:09:44.808Z,8.23
2018-12-08T08:12:12.278Z,9.87
2018-12-08T08:14:39.770Z,17.10
2018-12-08T08:17:07.244Z,8.87
2018-12-08T08:19:34.749Z,10.63
2018-12-08T08:22:03.248Z,6.67
2018-12-08T08:24:30.743Z,7.27
2018-12-08T08:26:58.211Z,12.33
2018-12-08T08:29:25.698Z,9.37
2018-12-08T08:31:53.252Z,9.50
2018-12-08T08:34:20.758Z,8.07
2018-12-08T08:36:48.251Z,7.83
2018-12-08T08:39:15.733Z,4.73
2018-12-08T08:41:43.232Z,11.43
2018-12-08T08:44:10.705Z,3.57
2018-12-08T08:46:38.216Z,6.13
2018-12-08T08:49:05.699Z,8.33
2018-12-08T08:51:33.187Z,9.73
2018-12-08T08:54:00.657Z,5.57
2018-12-08T08:56:28.153Z,5.27
2018-12-08T08:58:55.615Z,5.47
2018-12-08T09:01:23.096Z,6.90
2018-12-08T09:03:50.567Z,9.43
2018-12-08T09:06:18.047Z,8.47
2018-12-08T09:08:45.516Z,10.17
2018-12-08T09:11:13.041Z,7.67
2018-12-08T09:13:40.517Z,8.20
2018-12-08T09:16:07.987Z,6.70
2018-12-08T09:18:35.476Z,10.43
2018-12-08T09:21:02.965Z,13.80
2018-12-08T09:23:30.454Z,10.47
2018-12-08T09:25:57.920Z,14.23
2018-12-08T09:28:25.432Z,10.20
2018-12-08T09:30:52.903Z,15.20
2018-12-08T09:33:20.396Z,11.60
2018-12-08T09:35:47.880Z,10.93
2018-12-08T09:38:15.365Z,8.87
2018-12-08T09:40:42.835Z,14.37
2018-12-08T09:43:10.318Z,9.67
2018-12-08T09:45:41.773Z,13.33
2018-12-08T09:48:07.597Z,13.57
2018-12-08T09:50:35.451Z,10.03
2018-12-08T09:53:15.746Z,10.00
2018-12-08T09:55:43.292Z,11.80
2018-12-08T09:58:10.856Z,11.17
2018-12-08T10:00:38.571Z,9.27
2018-12-08T10:03:06.051Z,9.17
2018-12-08T10:05:33.524Z,11.13
2018-12-08T10:08:00.994Z,15.87
2018-12-08T10:10:39.404Z,12.27
2018-12-08T10:13:06.988Z,10.87
2018-12-08T10:15:34.460Z,12.70
2018-12-08T10:18:01.938Z,12.87
2018-12-08T10:20:29.412Z,10.43
2018-12-08T10:22:56.915Z,10.53
2018-12-08T10:25:24.473Z,13.70
2018-12-08T10:27:51.941Z,13.57
2018-12-08T10:30:19.419Z,10.40
2018-12-08T10:32:46.878Z,13.07
2018-12-08T10:38:10.337Z,9.43
2018-12-08T10:40:37.837Z,6.27
2018-12-08T10:43:05.314Z,13.80
2018-12-08T10:45:32.811Z,8.30
2018-12-08T10:48:00.284Z,11.40
2018-12-08T10:50:27.769Z,9.70
2018-12-08T10:52:55.226Z,13.60
2018-12-08T10:55:22.703Z,9.10
2018-12-08T10:57:50.172Z,11.50
2018-12-08T11:00:23.384Z,11.33
2018-12-08T11:02:52.508Z,14.43
2018-12-08T11:05:20.072Z,9.77
2018-12-08T11:07:47.608Z,10.87
2018-12-08T11:10:15.183Z,13.33
2018-12-08T11:12:42.651Z,11.37
2018-12-08T11:15:10.227Z,9.77
2018-12-08T11:17:37.721Z,18.53
2018-12-08T11:20:05.843Z,10.67
2018-12-08T11:22:33.305Z,15.20
2018-12-08T11:25:00.783Z,14.17
2018-12-08T11:27:28.251Z,7.20
2018-12-08T11:29:55.740Z,12.70
2018-12-08T11:32:23.203Z,13.67
2018-12-08T11:34:50.689Z,15.90
2018-12-08T11:37:18.148Z,16.60
2018-12-08T11:39:45.610Z,15.73
2018-12-08T11:42:13.097Z,15.77
2018-12-08T11:44:40.833Z,23.40
2018-12-08T11:47:08.324Z,15.67
2018-12-08T11:49:35.791Z,12.67
2018-12-08T11:52:03.282Z,14.90
2018-12-08T11:54:30.753Z,14.57
2018-12-08T11:56:58.232Z,7.70
2018-12-08T11:59:25.704Z,14.73
2018-12-08T12:01:53.181Z,17.73
2018-12-08T12:04:20.643Z,14.50
2018-12-08T12:06:48.129Z,12.97
2018-12-08T12:09:15.586Z,8.70
2018-12-08T12:11:43.064Z,9.03
2018-12-08T12:14:10.531Z,13.03
2018-12-08T12:16:38.019Z,9.63
2018-12-08T12:19:05.484Z,12.97
2018-12-08T12:21:32.967Z,16.73
2018-12-08T12:24:00.504Z,8.17
2018-12-08T12:26:27.981Z,12.17
2018-12-08T12:28:55.440Z,11.27
2018-12-08T12:31:22.916Z,13.23
2018-12-08T12:33:50.381Z,10.23
2018-12-08T12:36:18.145Z,8.67
2018-12-08T12:38:45.611Z,11.63
2018-12-08T12:41:13.083Z,9.50
2018-12-08T12:43:40.543Z,14.03
2018-12-08T12:46:08.033Z,14.20
2018-12-08T12:48:35.491Z,12.30
2018-12-08T12:51:02.975Z,12.90
2018-12-08T12:53:30.435Z,14.93
2018-12-08T12:55:57.919Z,12.53
2018-12-08T12:58:25.388Z,12.50
2018-12-08T13:00:52.876Z,13.30
2018-12-08T13:03:20.336Z,14.03
2018-12-08T13:05:47.819Z,9.43
2018-12-08T13:08:15.288Z,13.03
2018-12-08T13:10:42.772Z,7.80
2018-12-08T13:13:10.236Z,12.93
2018-12-08T13:15:37.737Z,12.33
2018-12-08T13:18:05.198Z,9.63
2018-12-08T13:20:32.684Z,10.57
2018-12-08T13:23:00.153Z,12.77
2018-12-08T13:25:27.749Z,13.50
2018-12-08T13:27:55.312Z,14.23
2018-12-08T13:30:22.800Z,14.07
2018-12-08T13:32:50.270Z,15.97
2018-12-08T13:38:23.533Z,12.93
2018-12-08T13:40:51.123Z,12.13
2018-12-08T13:43:18.592Z,12.33
2018-12-08T13:45:46.063Z,15.73
2018-12-08T13:48:14.915Z,17.63
2018-12-08T13:50:42.804Z,11.30
2018-12-08T13:53:10.291Z,12.77
2018-12-08T13:55:37.752Z,9.03
2018-12-08T13:58:05.232Z,15.23
2018-12-08T14:00:32.700Z,15.10
2018-12-08T14:03:00.179Z,14.07
2018-12-08T14:05:27.653Z,22.70
2018-12-08T14:07:55.132Z,24.40
2018-12-08T14:10:22.617Z,20.80
2018-12-08T14:12:50.124Z,15.23
2018-12-08T14:15:17.623Z,14.93
2018-12-08T14:17:45.099Z,12.67
2018-12-08T14:20:20.665Z,14.17
2018-12-08T14:22:48.147Z,10.77
2018-12-08T14:25:15.687Z,15.13
2018-12-08T14:27:43.305Z,15.93
2018-12-08T14:30:10.918Z,15.27
2018-12-08T14:32:38.523Z,12.33
2018-12-08T14:35:06.544Z,12.23
2018-12-08T14:37:34.019Z,25.57
2018-12-08T14:40:01.488Z,20.07
2018-12-08T14:42:28.977Z,15.93
2018-12-08T14:44:56.458Z,21.77
2018-12-08T14:47:23.934Z,15.47
2018-12-08T14:49:51.403Z,20.17
2018-12-08T14:52:18.888Z,16.03
2018-12-08T14:54:46.358Z,14.93
2018-12-08T14:57:13.830Z,14.03
2018-12-08T14:59:41.306Z,13.47
2018-12-08T15:02:08.800Z,14.30
2018-12-08T15:04:36.264Z,18.87
2018-12-08T15:07:03.756Z,12.27
2018-12-08T15:09:31.215Z,16.40
2018-12-08T15:11:58.692Z,21.00
2018-12-08T15:14:26.167Z,19.90
2018-12-08T15:16:53.643Z,23.43
2018-12-08T15:19:21.149Z,16.50
2018-12-08T15:21:48.620Z,16.10
2018-12-08T15:24:16.216Z,18.17
2018-12-08T15:26:43.675Z,22.90
2018-12-08T15:29:11.155Z,15.23
2018-12-08T15:31:38.624Z,21.20
2018-12-08T15:34:06.116Z,10.40
2018-12-08T15:36:33.583Z,11.53
2018-12-08T15:39:01.071Z,16.23
2018-12-08T15:41:28.542Z,15.90
2018-12-08T15:43:56.169Z,13.17
2018-12-08T15:46:23.708Z,16.57
2018-12-08T15:48:51.175Z,15.27
2018-12-08T15:51:18.740Z,21.20
2018-12-08T15:53:46.489Z,14.73
2018-12-08T15:56:13.970Z,17.00
2018-12-08T15:58:41.443Z,14.57
2018-12-08T16:01:08.915Z,15.30
2018-12-08T16:03:36.450Z,13.90
2018-12-08T16:06:04.014Z,14.97
2018-12-08T16:08:31.481Z,14.63
2018-12-08T16:10:58.947Z,15.57
2018-12-08T16:13:26.423Z,16.37
2018-12-08T16:15:53.961Z,13.00
2018-12-08T16:18:21.448Z,12.87
2018-12-08T16:20:48.997Z,10.50
2018-12-08T16:23:16.484Z,12.43
2018-12-08T16:25:43.959Z,10.10
2018-12-08T16:28:11.460Z,12.30
2018-12-08T16:30:38.933Z,9.53
2018-12-08T16:33:06.416Z,10.50
2018-12-08T16:35:33.876Z,10.07
2018-12-08T16:38:01.371Z,8.77
2018-12-08T16:40:28.844Z,14.37
2018-12-08T16:42:56.317Z,12.57
2018-12-08T16:45:23.959Z,9.47
2018-12-08T16:47:51.661Z,11.37
2018-12-08T16:50:19.144Z,10.17
2018-12-08T16:52:46.604Z,12.13
2018-12-08T16:55:14.085Z,6.37
2018-12-08T16:57:41.573Z,12.27
2018-12-08T17:00:09.221Z,11.53
2018-12-08T17:02:36.682Z,3.77
2018-12-08T17:05:04.703Z,8.73
2018-12-08T17:07:32.173Z,8.13
2018-12-08T17:09:59.653Z,9.93
2018-12-08T17:12:27.177Z,10.00
2018-12-08T17:14:54.671Z,7.30
2018-12-08T17:17:22.128Z,7.93
2018-12-08T17:19:49.604Z,6.33
2018-12-08T17:22:17.068Z,6.47
2018-12-08T17:24:44.549Z,8.27
2018-12-08T17:27:12.083Z,7.20
2018-12-08T17:29:39.571Z,6.47
2018-12-08T17:32:07.035Z,3.87
2018-12-08T17:34:34.499Z,7.50
2018-12-08T17:37:01.993Z,4.77
2018-12-08T17:39:29.451Z,9.37
2018-12-08T17:41:56.969Z,7.30
2018-12-08T17:44:24.432Z,4.40
2018-12-08T17:46:52.010Z,3.10
2018-12-08T17:49:19.470Z,7.00
2018-12-08T17:51:46.963Z,5.27
2018-12-08T17:54:14.429Z,5.43
2018-12-08T17:56:41.917Z,4.33
2018-12-08T17:59:09.375Z,2.77
2018-12-08T18:01:36.940Z,3.23
2018-12-08T18:04:04.419Z,4.57
2018-12-08T18:06:31.902Z,3.10
2018-12-08T18:08:59.538Z,6.03
2018-12-08T18:11:27.098Z,3.70
2018-12-08T18:13:54.558Z,3.37
2018-12-08T18:16:22.060Z,1.90
2018-12-08T18:18:49.515Z,2.50
2018-12-08T18:21:16.999Z,3.13
2018-12-08T18:23:44.455Z,3.73
2018-12-08T18:26:12.027Z,4.53
2018-12-08T18:28:39.485Z,2.80
2018-12-08T18:31:06.939Z,3.33
2018-12-08T18:33:34.419Z,2.13
2018-12-08T18:36:01.880Z,2.00
2018-12-08T18:38:29.356Z,6.53
2018-12-08T18:40:56.808Z,4.10
2018-12-08T18:43:24.295Z,2.07
2018-12-08T18:45:51.761Z,3.63
2018-12-08T18:48:19.277Z,1.70
2018-12-08T18:50:46.736Z,4.00
2018-12-08T18:53:14.215Z,1.53
2018-12-08T18:55:41.684Z,3.27
2018-12-08T18:58:09.159Z,3.93
2018-12-08T19:00:36.628Z,2.07
2018-12-08T19:03:04.203Z,2.63
2018-12-08T19:05:31.661Z,3.07
2018-12-08T19:07:59.151Z,1.20
2018-12-08T19:10:26.638Z,1.73
2018-12-08T19:12:54.113Z,1.20
2018-12-08T19:15:21.599Z,1.17
2018-12-08T19:17:49.068Z,2.20
2018-12-08T19:20:16.546Z,4.10
2018-12-08T19:22:44.188Z,1.10
2018-12-08T19:25:11.776Z,2.10
2018-12-08T19:27:39.262Z,1.73
2018-12-08T19:30:08.031Z,2.27
2018-12-08T19:32:35.492Z,2.10
2018-12-08T19:35:03.078Z,1.83
2018-12-08T19:37:30.550Z,1.40
2018-12-08T19:39:58.087Z,1.33
2018-12-08T19:42:25.591Z,2.13
2018-12-08T19:44:53.131Z,1.60
2018-12-08T19:47:20.607Z,4.10
2018-12-08T19:49:48.071Z,1.37
2018-12-08T19:52:15.568Z,1.97
2018-12-08T19:54:43.034Z,3.87
2018-12-08T19:57:10.515Z,0.90
2018-12-08T19:59:38.272Z,3.37
2018-12-08T20:02:06.152Z,1.20
2018-12-08T20:04:33.612Z,0.97
2018-12-08T20:07:01.084Z,2.13
2018-12-08T20:09:28.543Z,1.03
2018-12-08T20:11:56.028Z,1.00
2018-12-08T20:14:23.509Z,1.03
2018-12-08T20:16:51.137Z,0.93
2018-12-08T20:19:18.679Z,2.10
2018-12-08T20:21:46.168Z,1.50
2018-12-08T20:24:13.637Z,2.20
2018-12-08T20:26:41.640Z,1.10
2018-12-08T20:29:09.121Z,1.90
2018-12-08T20:31:36.605Z,3.87
2018-12-08T20:34:04.161Z,5.83
2018-12-08T20:36:31.641Z,5.20
2018-12-08T20:38:59.098Z,6.50
2018-12-08T20:41:26.575Z,6.27
2018-12-08T20:43:54.736Z,4.17
2018-12-08T20:46:22.211Z,3.07
2018-12-08T20:48:49.680Z,4.40
2018-12-08T20:51:17.175Z,2.90
2018-12-08T20:53:44.636Z,3.53
2018-12-08T20:56:12.099Z,7.10
2018-12-08T20:58:39.600Z,5.00
2018-12-08T21:01:07.079Z,5.00
2018-12-08T21:03:34.566Z,6.47
2018-12-08T21:06:02.045Z,1.63
2018-12-08T21:08:29.532Z,1.57
2018-12-08T21:10:57.030Z,3.03
2018-12-08T21:13:24.505Z,3.37
2018-12-08T21:15:51.971Z,2.83
2018-12-08T21:18:19.631Z,7.10
2018-12-08T21:20:47.120Z,2.43
2018-12-08T21:23:14.725Z,2.67
2018-12-08T21:25:42.215Z,4.37
2018-12-08T21:28:09.712Z,1.47
2018-12-08T21:30:37.174Z,2.70
2018-12-08T21:33:04.654Z,2.63
2018-12-08T21:35:32.115Z,4.63
2018-12-08T21:38:02.438Z,2.53
2018-12-08T21:40:30.057Z,3.53
2018-12-08T21:42:57.606Z,1.83
2018-12-08T21:45:25.927Z,4.27
2018-12-08T21:47:53.439Z,3.37
2018-12-08T21:50:21.039Z,5.20
2018-12-08T21:52:48.528Z,5.70
2018-12-08T21:55:16.016Z,4.30
2018-12-08T21:57:43.489Z,5.67
2018-12-08T22:00:11.031Z,7.27
2018-12-08T22:02:39.774Z,6.80
2018-12-08T22:05:07.436Z,7.30
2018-12-08T22:07:35.591Z,4.60
2018-12-08T22:10:03.729Z,9.33
2018-12-08T22:12:31.192Z,4.67
2018-12-08T22:14:59.256Z,7.93
2018-12-08T22:17:26.885Z,11.13
2018-12-08T22:19:54.367Z,11.40
2018-12-08T22:22:22.677Z,7.43
2018-12-08T22:24:50.492Z,6.50
2018-12-08T22:27:18.007Z,7.03
2018-12-08T22:29:45.471Z,14.03
2018-12-08T22:32:12.960Z,11.43
2018-12-08T22:34:40.425Z,13.50
2018-12-08T22:37:07.899Z,14.80
2018-12-08T22:39:35.365Z,13.40
2018-12-08T22:42:02.925Z,14.30
2018-12-08T22:44:30.383Z,16.07
2018-12-08T22:46:57.908Z,15.07
2018-12-08T22:49:25.376Z,14.07
2018-12-08T22:51:52.850Z,11.33
2018-12-08T22:54:20.310Z,12.73
2018-12-08T22:56:47.798Z,14.47
2018-12-08T22:59:15.269Z,16.03
2018-12-08T23:01:43.027Z,27.50
2018-12-08T23:04:10.488Z,14.53
2018-12-08T23:06:37.992Z,19.13
2018-12-08T23:09:06.183Z,17.70
2018-12-08T23:11:33.718Z,14.77
2018-12-08T23:14:01.204Z,14.43
2018-12-08T23:16:28.672Z,20.30
2018-12-08T23:18:56.161Z,14.67
2018-12-08T23:21:23.986Z,11.63
2018-12-08T23:23:51.480Z,13.83
2018-12-08T23:26:18.943Z,16.07
2018-12-08T23:28:46.420Z,18.93
2018-12-08T23:31:13.889Z,17.83
2018-12-08T23:33:41.381Z,17.30
2018-12-08T23:36:09.699Z,16.60
2018-12-08T23:38:37.283Z,9.43
2018-12-08T23:41:04.780Z,13.40
2018-12-08T23:43:32.273Z,11.63
2018-12-08T23:45:59.750Z,12.70
2018-12-08T23:48:27.232Z,9.47
2018-12-08T23:50:54.730Z,9.93
2018-12-08T23:53:22.201Z,17.23
2018-12-08T23:55:49.676Z,11.97
2018-12-08T23:58:17.143Z,14.03
